sensor_id;sensor_type;location;lat;lon;timestamp;P1;durP1;ratioP1;P2;durP2;ratioP2
84668;SDS011;74897;42.704;23.318;2023-12-22T00:00:28;21.88;;;12.20;;
84668;SDS011;74897;42.704;23.318;2023-12-22T00:02:53;21.47;;;12.63;;
84668;SDS011;74897;42.704;23.318;2023-12-22T00:07:44;23.27;;;11.80;;
84668;SDS011;74897;42.704;23.318;2023-12-22T00:10:09;27.48;;;14.00;;
84668;SDS011;74897;42.704;23.318;2023-12-22T00:12:35;22.70;;;12.88;;
84668;SDS011;74897;42.704;23.318;2023-12-22T00:17:25;24.77;;;12.50;;
84668;SDS011;74897;42.704;23.318;2023-12-22T00:19:51;26.50;;;13.50;;
84668;SDS011;74897;42.704;23.318;2023-12-22T00:24:41;24.37;;;13.40;;
84668;SDS011;74897;42.704;23.318;2023-12-22T00:27:06;24.33;;;13.73;;
84668;SDS011;74897;42.704;23.318;2023-12-22T00:29:32;27.52;;;14.88;;
84668;SDS011;74897;42.704;23.318;2023-12-22T00:32:01;29.73;;;16.90;;
84668;SDS011;74897;42.704;23.318;2023-12-22T00:34:28;26.38;;;15.63;;
84668;SDS011;74897;42.704;23.318;2023-12-22T00:36:54;34.35;;;16.50;;
84668;SDS011;74897;42.704;23.318;2023-12-22T00:39:19;27.50;;;15.07;;
84668;SDS011;74897;42.704;23.318;2023-12-22T00:41:44;25.20;;;15.38;;
84668;SDS011;74897;42.704;23.318;2023-12-22T00:44:09;26.87;;;14.40;;
84668;SDS011;74897;42.704;23.318;2023-12-22T00:46:35;31.03;;;16.97;;
84668;SDS011;74897;42.704;23.318;2023-12-22T00:49:02;30.17;;;15.93;;
84668;SDS011;74897;42.704;23.318;2023-12-22T00:51:28;25.95;;;15.75;;
84668;SDS011;74897;42.704;23.318;2023-12-22T00:53:53;28.20;;;15.60;;
84668;SDS011;74897;42.704;23.318;2023-12-22T00:56:18;28.00;;;15.00;;
84668;SDS011;74897;42.704;23.318;2023-12-22T00:58:44;30.05;;;15.43;;
84668;SDS011;74897;42.704;23.318;2023-12-22T01:01:09;27.73;;;15.50;;
84668;SDS011;74897;42.704;23.318;2023-12-22T01:03:35;28.38;;;14.77;;
84668;SDS011;74897;42.704;23.318;2023-12-22T01:06:00;24.17;;;13.97;;
84668;SDS011;74897;42.704;23.318;2023-12-22T01:08:25;27.40;;;15.47;;
84668;SDS011;74897;42.704;23.318;2023-12-22T01:10:51;23.98;;;13.63;;
84668;SDS011;74897;42.704;23.318;2023-12-22T01:13:18;21.00;;;11.80;;
84668;SDS011;74897;42.704;23.318;2023-12-22T01:15:44;28.85;;;13.40;;
84668;SDS011;74897;42.704;23.318;2023-12-22T01:18:10;29.83;;;13.60;;
84668;SDS011;74897;42.704;23.318;2023-12-22T01:20:38;23.70;;;13.63;;
84668;SDS011;74897;42.704;23.318;2023-12-22T01:23:03;29.83;;;15.38;;
84668;SDS011;74897;42.704;23.318;2023-12-22T01:25:29;25.70;;;14.70;;
84668;SDS011;74897;42.704;23.318;2023-12-22T01:27:54;26.48;;;14.45;;
84668;SDS011;74897;42.704;23.318;2023-12-22T01:30:19;25.88;;;14.07;;
84668;SDS011;74897;42.704;23.318;2023-12-22T01:32:44;25.67;;;14.25;;
84668;SDS011;74897;42.704;23.318;2023-12-22T01:35:10;28.80;;;14.88;;
84668;SDS011;74897;42.704;23.318;2023-12-22T01:37:36;22.87;;;13.40;;
84668;SDS011;74897;42.704;23.318;2023-12-22T01:40:01;22.92;;;14.18;;
84668;SDS011;74897;42.704;23.318;2023-12-22T01:42:27;22.65;;;13.10;;
84668;SDS011;74897;42.704;23.318;2023-12-22T01:44:53;19.95;;;10.32;;
84668;SDS011;74897;42.704;23.318;2023-12-22T01:47:18;25.63;;;13.82;;
84668;SDS011;74897;42.704;23.318;2023-12-22T01:49:43;26.08;;;13.82;;
84668;SDS011;74897;42.704;23.318;2023-12-22T01:52:09;25.63;;;13.77;;
84668;SDS011;74897;42.704;23.318;2023-12-22T01:54:34;23.15;;;13.38;;
84668;SDS011;74897;42.704;23.318;2023-12-22T01:57:00;22.33;;;13.63;;
84668;SDS011;74897;42.704;23.318;2023-12-22T01:59:26;20.75;;;12.52;;
84668;SDS011;74897;42.704;23.318;2023-12-22T02:01:51;21.52;;;12.35;;
84668;SDS011;74897;42.704;23.318;2023-12-22T02:04:17;29.65;;;14.30;;
84668;SDS011;74897;42.704;23.318;2023-12-22T02:06:42;27.45;;;13.90;;
84668;SDS011;74897;42.704;23.318;2023-12-22T02:09:08;28.00;;;15.18;;
84668;SDS011;74897;42.704;23.318;2023-12-22T02:11:33;27.60;;;14.25;;
84668;SDS011;74897;42.704;23.318;2023-12-22T02:13:58;24.83;;;14.75;;
84668;SDS011;74897;42.704;23.318;2023-12-22T02:18:50;26.88;;;15.60;;
84668;SDS011;74897;42.704;23.318;2023-12-22T02:21:16;24.77;;;15.48;;
84668;SDS011;74897;42.704;23.318;2023-12-22T02:23:41;28.20;;;16.38;;
84668;SDS011;74897;42.704;23.318;2023-12-22T02:26:10;38.00;;;19.67;;
84668;SDS011;74897;42.704;23.318;2023-12-22T02:28:38;44.95;;;23.38;;
84668;SDS011;74897;42.704;23.318;2023-12-22T02:31:08;46.05;;;24.60;;
84668;SDS011;74897;42.704;23.318;2023-12-22T02:33:34;47.80;;;23.80;;
84668;SDS011;74897;42.704;23.318;2023-12-22T02:36:02;45.30;;;23.00;;
84668;SDS011;74897;42.704;23.318;2023-12-22T02:38:28;45.28;;;23.20;;
84668;SDS011;74897;42.704;23.318;2023-12-22T02:40:53;41.55;;;22.50;;
84668;SDS011;74897;42.704;23.318;2023-12-22T02:43:19;44.38;;;22.17;;
84668;SDS011;74897;42.704;23.318;2023-12-22T02:45:45;40.72;;;22.75;;
84668;SDS011;74897;42.704;23.318;2023-12-22T02:48:14;45.55;;;24.70;;
84668;SDS011;74897;42.704;23.318;2023-12-22T02:50:40;38.45;;;20.95;;
84668;SDS011;74897;42.704;23.318;2023-12-22T02:53:05;42.33;;;22.03;;
84668;SDS011;74897;42.704;23.318;2023-12-22T02:55:30;40.72;;;20.33;;
84668;SDS011;74897;42.704;23.318;2023-12-22T02:57:56;40.03;;;22.17;;
84668;SDS011;74897;42.704;23.318;2023-12-22T03:00:21;36.92;;;20.63;;
84668;SDS011;74897;42.704;23.318;2023-12-22T03:02:46;33.33;;;18.23;;
84668;SDS011;74897;42.704;23.318;2023-12-22T03:05:11;32.88;;;16.67;;
84668;SDS011;74897;42.704;23.318;2023-12-22T03:07:37;30.02;;;17.70;;
84668;SDS011;74897;42.704;23.318;2023-12-22T03:10:05;31.52;;;17.95;;
84668;SDS011;74897;42.704;23.318;2023-12-22T03:12:30;28.42;;;17.52;;
84668;SDS011;74897;42.704;23.318;2023-12-22T03:14:55;32.03;;;18.15;;
84668;SDS011;74897;42.704;23.318;2023-12-22T03:17:20;33.10;;;17.93;;
84668;SDS011;74897;42.704;23.318;2023-12-22T03:19:46;29.08;;;16.73;;
84668;SDS011;74897;42.704;23.318;2023-12-22T03:22:11;27.63;;;15.77;;
84668;SDS011;74897;42.704;23.318;2023-12-22T03:24:37;26.42;;;15.85;;
84668;SDS011;74897;42.704;23.318;2023-12-22T03:27:03;26.75;;;14.38;;
84668;SDS011;74897;42.704;23.318;2023-12-22T03:29:28;29.08;;;16.65;;
84668;SDS011;74897;42.704;23.318;2023-12-22T03:34:19;25.15;;;13.73;;
84668;SDS011;74897;42.704;23.318;2023-12-22T03:36:44;23.88;;;14.18;;
84668;SDS011;74897;42.704;23.318;2023-12-22T03:39:13;27.95;;;13.55;;
84668;SDS011;74897;42.704;23.318;2023-12-22T03:41:38;23.70;;;14.10;;
84668;SDS011;74897;42.704;23.318;2023-12-22T03:44:04;23.60;;;14.30;;
84668;SDS011;74897;42.704;23.318;2023-12-22T03:46:29;27.33;;;14.32;;
84668;SDS011;74897;42.704;23.318;2023-12-22T03:48:54;26.45;;;14.98;;
84668;SDS011;74897;42.704;23.318;2023-12-22T03:51:20;24.20;;;14.13;;
84668;SDS011;74897;42.704;23.318;2023-12-22T03:53:45;20.85;;;13.55;;
84668;SDS011;74897;42.704;23.318;2023-12-22T03:56:10;22.07;;;12.87;;
84668;SDS011;74897;42.704;23.318;2023-12-22T03:58:36;21.75;;;13.55;;
84668;SDS011;74897;42.704;23.318;2023-12-22T04:01:02;25.67;;;13.63;;
84668;SDS011;74897;42.704;23.318;2023-12-22T04:03:32;27.63;;;15.73;;
84668;SDS011;74897;42.704;23.318;2023-12-22T04:06:00;26.80;;;15.02;;
84668;SDS011;74897;42.704;23.318;2023-12-22T04:08:26;28.65;;;15.05;;
84668;SDS011;74897;42.704;23.318;2023-12-22T04:10:51;27.37;;;15.30;;
84668;SDS011;74897;42.704;23.318;2023-12-22T04:13:16;27.03;;;16.97;;
84668;SDS011;74897;42.704;23.318;2023-12-22T04:15:42;26.45;;;14.30;;
84668;SDS011;74897;42.704;23.318;2023-12-22T04:18:07;25.35;;;15.27;;
84668;SDS011;74897;42.704;23.318;2023-12-22T04:20:33;26.55;;;15.90;;
84668;SDS011;74897;42.704;23.318;2023-12-22T04:22:58;27.67;;;14.63;;
84668;SDS011;74897;42.704;23.318;2023-12-22T04:25:23;25.85;;;13.98;;
84668;SDS011;74897;42.704;23.318;2023-12-22T04:27:51;23.67;;;13.88;;
84668;SDS011;74897;42.704;23.318;2023-12-22T04:30:16;27.27;;;15.63;;
84668;SDS011;74897;42.704;23.318;2023-12-22T04:32:42;24.92;;;14.60;;
84668;SDS011;74897;42.704;23.318;2023-12-22T04:35:07;28.20;;;16.00;;
84668;SDS011;74897;42.704;23.318;2023-12-22T04:37:33;29.30;;;16.40;;
84668;SDS011;74897;42.704;23.318;2023-12-22T04:39:58;26.17;;;15.52;;
84668;SDS011;74897;42.704;23.318;2023-12-22T04:42:23;28.33;;;15.70;;
84668;SDS011;74897;42.704;23.318;2023-12-22T04:44:50;27.17;;;14.65;;
84668;SDS011;74897;42.704;23.318;2023-12-22T04:47:16;27.27;;;16.50;;
84668;SDS011;74897;42.704;23.318;2023-12-22T04:49:41;22.73;;;14.73;;
84668;SDS011;74897;42.704;23.318;2023-12-22T04:52:06;29.15;;;16.08;;
84668;SDS011;74897;42.704;23.318;2023-12-22T04:54:31;26.10;;;15.07;;
84668;SDS011;74897;42.704;23.318;2023-12-22T04:56:57;27.30;;;15.70;;
84668;SDS011;74897;42.704;23.318;2023-12-22T04:59:22;30.33;;;18.38;;
84668;SDS011;74897;42.704;23.318;2023-12-22T05:01:47;37.67;;;21.17;;
84668;SDS011;74897;42.704;23.318;2023-12-22T05:04:13;33.33;;;20.15;;
84668;SDS011;74897;42.704;23.318;2023-12-22T05:06:38;35.60;;;21.42;;
84668;SDS011;74897;42.704;23.318;2023-12-22T05:09:04;32.72;;;18.17;;
84668;SDS011;74897;42.704;23.318;2023-12-22T05:11:29;29.08;;;18.00;;
84668;SDS011;74897;42.704;23.318;2023-12-22T05:13:54;26.73;;;15.90;;
84668;SDS011;74897;42.704;23.318;2023-12-22T05:16:20;26.52;;;16.85;;
84668;SDS011;74897;42.704;23.318;2023-12-22T05:18:45;28.08;;;14.95;;
84668;SDS011;74897;42.704;23.318;2023-12-22T05:21:15;31.77;;;18.47;;
84668;SDS011;74897;42.704;23.318;2023-12-22T05:23:40;25.52;;;16.42;;
84668;SDS011;74897;42.704;23.318;2023-12-22T05:26:05;26.67;;;15.13;;
84668;SDS011;74897;42.704;23.318;2023-12-22T05:28:30;30.10;;;14.15;;
84668;SDS011;74897;42.704;23.318;2023-12-22T05:30:57;26.08;;;16.67;;
84668;SDS011;74897;42.704;23.318;2023-12-22T05:33:22;27.65;;;15.20;;
84668;SDS011;74897;42.704;23.318;2023-12-22T05:35:47;24.90;;;15.13;;
84668;SDS011;74897;42.704;23.318;2023-12-22T05:38:13;27.67;;;15.97;;
84668;SDS011;74897;42.704;23.318;2023-12-22T05:40:38;29.15;;;15.93;;
84668;SDS011;74897;42.704;23.318;2023-12-22T05:43:03;27.73;;;16.08;;
84668;SDS011;74897;42.704;23.318;2023-12-22T05:45:28;25.13;;;15.05;;
84668;SDS011;74897;42.704;23.318;2023-12-22T05:47:54;21.02;;;12.75;;
84668;SDS011;74897;42.704;23.318;2023-12-22T05:50:19;24.02;;;14.95;;
84668;SDS011;74897;42.704;23.318;2023-12-22T05:52:44;28.88;;;16.50;;
84668;SDS011;74897;42.704;23.318;2023-12-22T05:55:10;29.40;;;17.50;;
84668;SDS011;74897;42.704;23.318;2023-12-22T05:57:36;27.35;;;18.42;;
84668;SDS011;74897;42.704;23.318;2023-12-22T06:00:01;31.88;;;16.70;;
84668;SDS011;74897;42.704;23.318;2023-12-22T06:02:29;30.35;;;18.05;;
84668;SDS011;74897;42.704;23.318;2023-12-22T06:04:55;30.95;;;18.40;;
84668;SDS011;74897;42.704;23.318;2023-12-22T06:07:20;31.58;;;19.23;;
84668;SDS011;74897;42.704;23.318;2023-12-22T06:09:45;29.85;;;18.52;;
84668;SDS011;74897;42.704;23.318;2023-12-22T06:12:11;34.25;;;19.10;;
84668;SDS011;74897;42.704;23.318;2023-12-22T06:14:36;29.25;;;18.27;;
84668;SDS011;74897;42.704;23.318;2023-12-22T06:17:01;35.67;;;19.53;;
84668;SDS011;74897;42.704;23.318;2023-12-22T06:19:27;35.92;;;21.35;;
84668;SDS011;74897;42.704;23.318;2023-12-22T06:21:55;35.30;;;21.67;;
84668;SDS011;74897;42.704;23.318;2023-12-22T06:24:20;38.70;;;22.13;;
84668;SDS011;74897;42.704;23.318;2023-12-22T06:26:46;35.97;;;22.40;;
84668;SDS011;74897;42.704;23.318;2023-12-22T06:29:11;35.50;;;22.23;;
84668;SDS011;74897;42.704;23.318;2023-12-22T06:31:36;35.47;;;22.20;;
84668;SDS011;74897;42.704;23.318;2023-12-22T06:34:01;39.23;;;22.03;;
84668;SDS011;74897;42.704;23.318;2023-12-22T06:36:27;36.67;;;18.85;;
84668;SDS011;74897;42.704;23.318;2023-12-22T06:38:53;32.33;;;19.95;;
84668;SDS011;74897;42.704;23.318;2023-12-22T06:41:19;32.20;;;17.98;;
84668;SDS011;74897;42.704;23.318;2023-12-22T06:43:44;33.47;;;19.65;;
84668;SDS011;74897;42.704;23.318;2023-12-22T06:46:16;30.15;;;19.50;;
84668;SDS011;74897;42.704;23.318;2023-12-22T06:48:44;30.42;;;17.95;;
84668;SDS011;74897;42.704;23.318;2023-12-22T06:51:28;31.20;;;18.55;;
84668;SDS011;74897;42.704;23.318;2023-12-22T06:53:56;25.98;;;17.40;;
84668;SDS011;74897;42.704;23.318;2023-12-22T06:58:48;30.70;;;20.27;;
84668;SDS011;74897;42.704;23.318;2023-12-22T07:01:19;31.08;;;19.25;;
84668;SDS011;74897;42.704;23.318;2023-12-22T07:03:46;30.58;;;18.15;;
84668;SDS011;74897;42.704;23.318;2023-12-22T07:06:11;26.67;;;18.10;;
84668;SDS011;74897;42.704;23.318;2023-12-22T07:08:36;30.58;;;18.30;;
84668;SDS011;74897;42.704;23.318;2023-12-22T07:11:01;31.92;;;19.50;;
84668;SDS011;74897;42.704;23.318;2023-12-22T07:13:27;29.20;;;19.38;;
84668;SDS011;74897;42.704;23.318;2023-12-22T07:15:52;32.37;;;20.00;;
84668;SDS011;74897;42.704;23.318;2023-12-22T07:18:17;32.30;;;20.20;;
84668;SDS011;74897;42.704;23.318;2023-12-22T07:20:43;34.90;;;21.57;;
84668;SDS011;74897;42.704;23.318;2023-12-22T07:23:09;34.55;;;20.20;;
84668;SDS011;74897;42.704;23.318;2023-12-22T07:25:37;29.50;;;18.92;;
84668;SDS011;74897;42.704;23.318;2023-12-22T07:28:06;28.25;;;19.20;;
84668;SDS011;74897;42.704;23.318;2023-12-22T07:30:31;27.50;;;17.25;;
84668;SDS011;74897;42.704;23.318;2023-12-22T07:32:56;29.65;;;17.92;;
84668;SDS011;74897;42.704;23.318;2023-12-22T07:35:22;32.77;;;18.47;;
84668;SDS011;74897;42.704;23.318;2023-12-22T07:37:47;34.08;;;20.00;;
84668;SDS011;74897;42.704;23.318;2023-12-22T07:40:12;32.55;;;19.45;;
84668;SDS011;74897;42.704;23.318;2023-12-22T07:42:38;30.75;;;20.25;;
84668;SDS011;74897;42.704;23.318;2023-12-22T07:45:04;29.63;;;19.55;;
84668;SDS011;74897;42.704;23.318;2023-12-22T07:47:29;36.33;;;20.85;;
84668;SDS011;74897;42.704;23.318;2023-12-22T07:49:55;33.97;;;21.83;;
84668;SDS011;74897;42.704;23.318;2023-12-22T07:52:20;34.03;;;21.05;;
84668;SDS011;74897;42.704;23.318;2023-12-22T07:54:45;34.28;;;21.92;;
84668;SDS011;74897;42.704;23.318;2023-12-22T07:57:12;35.17;;;22.02;;
84668;SDS011;74897;42.704;23.318;2023-12-22T07:59:37;34.20;;;21.25;;
84668;SDS011;74897;42.704;23.318;2023-12-22T08:02:03;34.15;;;20.40;;
84668;SDS011;74897;42.704;23.318;2023-12-22T08:04:28;34.97;;;21.45;;
84668;SDS011;74897;42.704;23.318;2023-12-22T08:06:53;32.40;;;19.88;;
84668;SDS011;74897;42.704;23.318;2023-12-22T08:09:19;36.60;;;21.23;;
84668;SDS011;74897;42.704;23.318;2023-12-22T08:11:45;36.17;;;21.95;;
84668;SDS011;74897;42.704;23.318;2023-12-22T08:14:12;34.53;;;21.45;;
84668;SDS011;74897;42.704;23.318;2023-12-22T08:16:37;33.80;;;22.45;;
84668;SDS011;74897;42.704;23.318;2023-12-22T08:19:02;30.48;;;17.50;;
84668;SDS011;74897;42.704;23.318;2023-12-22T08:21:28;33.05;;;19.75;;
84668;SDS011;74897;42.704;23.318;2023-12-22T08:23:53;35.97;;;21.67;;
84668;SDS011;74897;42.704;23.318;2023-12-22T08:26:18;41.67;;;20.38;;
84668;SDS011;74897;42.704;23.318;2023-12-22T08:28:44;36.95;;;19.50;;
84668;SDS011;74897;42.704;23.318;2023-12-22T08:31:09;38.00;;;22.80;;
84668;SDS011;74897;42.704;23.318;2023-12-22T08:33:35;42.03;;;23.20;;
84668;SDS011;74897;42.704;23.318;2023-12-22T08:36:00;38.17;;;25.17;;
84668;SDS011;74897;42.704;23.318;2023-12-22T08:38:25;42.28;;;25.40;;
84668;SDS011;74897;42.704;23.318;2023-12-22T08:40:54;42.22;;;25.00;;
84668;SDS011;74897;42.704;23.318;2023-12-22T08:43:19;41.30;;;24.17;;
84668;SDS011;74897;42.704;23.318;2023-12-22T08:45:45;37.40;;;23.23;;
84668;SDS011;74897;42.704;23.318;2023-12-22T08:48:10;38.10;;;21.65;;
84668;SDS011;74897;42.704;23.318;2023-12-22T08:50:35;33.88;;;21.73;;
84668;SDS011;74897;42.704;23.318;2023-12-22T08:53:01;32.42;;;18.85;;
84668;SDS011;74897;42.704;23.318;2023-12-22T08:55:26;27.08;;;17.60;;
84668;SDS011;74897;42.704;23.318;2023-12-22T08:57:51;28.30;;;18.75;;
84668;SDS011;74897;42.704;23.318;2023-12-22T09:00:17;29.90;;;18.58;;
84668;SDS011;74897;42.704;23.318;2023-12-22T09:02:43;29.25;;;18.50;;
84668;SDS011;74897;42.704;23.318;2023-12-22T09:05:09;31.95;;;20.52;;
84668;SDS011;74897;42.704;23.318;2023-12-22T09:07:34;31.77;;;19.08;;
84668;SDS011;74897;42.704;23.318;2023-12-22T09:10:00;34.33;;;20.10;;
84668;SDS011;74897;42.704;23.318;2023-12-22T09:12:25;29.02;;;19.48;;
84668;SDS011;74897;42.704;23.318;2023-12-22T09:14:50;38.53;;;20.15;;
84668;SDS011;74897;42.704;23.318;2023-12-22T09:17:16;45.78;;;25.80;;
84668;SDS011;74897;42.704;23.318;2023-12-22T09:19:41;25.13;;;14.60;;
84668;SDS011;74897;42.704;23.318;2023-12-22T09:22:08;25.77;;;14.23;;
84668;SDS011;74897;42.704;23.318;2023-12-22T09:24:33;23.13;;;12.55;;
84668;SDS011;74897;42.704;23.318;2023-12-22T09:26:58;22.57;;;13.03;;
84668;SDS011;74897;42.704;23.318;2023-12-22T09:29:28;17.80;;;11.43;;
84668;SDS011;74897;42.704;23.318;2023-12-22T09:31:53;20.58;;;14.20;;
84668;SDS011;74897;42.704;23.318;2023-12-22T09:34:19;24.70;;;14.93;;
84668;SDS011;74897;42.704;23.318;2023-12-22T09:36:44;28.50;;;16.63;;
84668;SDS011;74897;42.704;23.318;2023-12-22T09:39:09;69.20;;;36.37;;
84668;SDS011;74897;42.704;23.318;2023-12-22T09:41:34;81.38;;;37.45;;
84668;SDS011;74897;42.704;23.318;2023-12-22T09:44:00;72.63;;;33.75;;
84668;SDS011;74897;42.704;23.318;2023-12-22T09:46:26;34.95;;;17.67;;
84668;SDS011;74897;42.704;23.318;2023-12-22T09:48:52;23.13;;;14.98;;
84668;SDS011;74897;42.704;23.318;2023-12-22T09:51:18;19.65;;;12.38;;
84668;SDS011;74897;42.704;23.318;2023-12-22T09:53:44;16.90;;;11.93;;
84668;SDS011;74897;42.704;23.318;2023-12-22T09:56:10;17.55;;;11.85;;
84668;SDS011;74897;42.704;23.318;2023-12-22T09:58:36;15.45;;;10.60;;
84668;SDS011;74897;42.704;23.318;2023-12-22T10:01:02;15.57;;;10.82;;
84668;SDS011;74897;42.704;23.318;2023-12-22T10:03:30;16.95;;;10.48;;
84668;SDS011;74897;42.704;23.318;2023-12-22T10:05:56;16.60;;;10.90;;
84668;SDS011;74897;42.704;23.318;2023-12-22T10:08:21;19.42;;;11.65;;
84668;SDS011;74897;42.704;23.318;2023-12-22T10:10:47;14.60;;;9.93;;
84668;SDS011;74897;42.704;23.318;2023-12-22T10:13:12;18.73;;;11.43;;
84668;SDS011;74897;42.704;23.318;2023-12-22T10:15:40;22.17;;;13.73;;
84668;SDS011;74897;42.704;23.318;2023-12-22T10:18:06;25.83;;;14.98;;
84668;SDS011;74897;42.704;23.318;2023-12-22T10:20:33;29.90;;;16.98;;
84668;SDS011;74897;42.704;23.318;2023-12-22T10:22:58;33.45;;;19.23;;
84668;SDS011;74897;42.704;23.318;2023-12-22T10:25:27;21.05;;;12.68;;
84668;SDS011;74897;42.704;23.318;2023-12-22T10:27:52;21.23;;;13.20;;
84668;SDS011;74897;42.704;23.318;2023-12-22T10:30:19;16.88;;;10.95;;
84668;SDS011;74897;42.704;23.318;2023-12-22T10:32:44;12.68;;;9.52;;
84668;SDS011;74897;42.704;23.318;2023-12-22T10:35:09;15.77;;;10.38;;
84668;SDS011;74897;42.704;23.318;2023-12-22T10:37:35;14.77;;;9.32;;
84668;SDS011;74897;42.704;23.318;2023-12-22T10:40:03;24.10;;;12.80;;
84668;SDS011;74897;42.704;23.318;2023-12-22T10:42:29;22.58;;;12.15;;
84668;SDS011;74897;42.704;23.318;2023-12-22T10:44:55;15.50;;;10.05;;
84668;SDS011;74897;42.704;23.318;2023-12-22T10:47:20;11.65;;;8.60;;
84668;SDS011;74897;42.704;23.318;2023-12-22T10:49:47;14.73;;;9.10;;
84668;SDS011;74897;42.704;23.318;2023-12-22T10:52:18;13.10;;;8.90;;
84668;SDS011;74897;42.704;23.318;2023-12-22T10:54:44;12.30;;;9.02;;
84668;SDS011;74897;42.704;23.318;2023-12-22T10:57:10;12.07;;;8.50;;
84668;SDS011;74897;42.704;23.318;2023-12-22T10:59:35;10.80;;;7.93;;
84668;SDS011;74897;42.704;23.318;2023-12-22T11:02:02;11.75;;;8.27;;
84668;SDS011;74897;42.704;23.318;2023-12-22T11:04:31;12.32;;;9.20;;
84668;SDS011;74897;42.704;23.318;2023-12-22T11:07:00;11.80;;;8.75;;
84668;SDS011;74897;42.704;23.318;2023-12-22T11:09:28;12.45;;;9.63;;
84668;SDS011;74897;42.704;23.318;2023-12-22T11:11:56;9.20;;;7.57;;
84668;SDS011;74897;42.704;23.318;2023-12-22T11:14:21;8.30;;;6.55;;
84668;SDS011;74897;42.704;23.318;2023-12-22T11:16:47;7.35;;;6.60;;
84668;SDS011;74897;42.704;23.318;2023-12-22T11:19:14;13.95;;;6.85;;
84668;SDS011;74897;42.704;23.318;2023-12-22T11:21:39;6.43;;;5.80;;
84668;SDS011;74897;42.704;23.318;2023-12-22T11:24:05;6.30;;;5.30;;
84668;SDS011;74897;42.704;23.318;2023-12-22T11:26:31;7.75;;;5.50;;
84668;SDS011;74897;42.704;23.318;2023-12-22T11:28:57;7.78;;;5.90;;
84668;SDS011;74897;42.704;23.318;2023-12-22T11:31:23;10.18;;;6.75;;
84668;SDS011;74897;42.704;23.318;2023-12-22T11:33:51;8.15;;;6.40;;
84668;SDS011;74897;42.704;23.318;2023-12-22T11:36:17;8.05;;;5.43;;
84668;SDS011;74897;42.704;23.318;2023-12-22T11:38:42;11.18;;;7.68;;
84668;SDS011;74897;42.704;23.318;2023-12-22T11:44:06;6.40;;;5.18;;
84668;SDS011;74897;42.704;23.318;2023-12-22T11:46:32;6.82;;;5.85;;
84668;SDS011;74897;42.704;23.318;2023-12-22T11:49:16;5.35;;;4.85;;
84668;SDS011;74897;42.704;23.318;2023-12-22T11:55:07;2.70;;;2.10;;
84668;SDS011;74897;42.704;23.318;2023-12-22T11:57:37;3.08;;;2.88;;
84668;SDS011;74897;42.704;23.318;2023-12-22T12:02:53;2.50;;;2.30;;
84668;SDS011;74897;42.704;23.318;2023-12-22T12:05:31;3.38;;;3.17;;
84668;SDS011;74897;42.704;23.318;2023-12-22T12:08:06;1.90;;;1.80;;
84668;SDS011;74897;42.704;23.318;2023-12-22T12:13:04;1.88;;;1.77;;
84668;SDS011;74897;42.704;23.318;2023-12-22T12:17:58;3.35;;;2.20;;
84668;SDS011;74897;42.704;23.318;2023-12-22T12:20:23;2.35;;;2.08;;
84668;SDS011;74897;42.704;23.318;2023-12-22T12:22:48;6.03;;;4.53;;
84668;SDS011;74897;42.704;23.318;2023-12-22T12:25:14;5.10;;;3.97;;
84668;SDS011;74897;42.704;23.318;2023-12-22T12:27:39;3.30;;;2.60;;
84668;SDS011;74897;42.704;23.318;2023-12-22T12:30:11;2.60;;;2.40;;
84668;SDS011;74897;42.704;23.318;2023-12-22T12:32:37;2.60;;;2.25;;
84668;SDS011;74897;42.704;23.318;2023-12-22T12:35:03;2.55;;;2.33;;
84668;SDS011;74897;42.704;23.318;2023-12-22T12:37:29;3.40;;;2.30;;
84668;SDS011;74897;42.704;23.318;2023-12-22T12:39:57;1.85;;;1.75;;
84668;SDS011;74897;42.704;23.318;2023-12-22T12:42:24;2.20;;;2.00;;
84668;SDS011;74897;42.704;23.318;2023-12-22T12:44:49;3.05;;;2.85;;
84668;SDS011;74897;42.704;23.318;2023-12-22T12:47:17;2.33;;;2.13;;
84668;SDS011;74897;42.704;23.318;2023-12-22T12:49:43;3.28;;;2.85;;
84668;SDS011;74897;42.704;23.318;2023-12-22T12:52:14;3.55;;;3.25;;
84668;SDS011;74897;42.704;23.318;2023-12-22T12:54:40;3.67;;;3.38;;
84668;SDS011;74897;42.704;23.318;2023-12-22T12:57:05;2.28;;;2.08;;
84668;SDS011;74897;42.704;23.318;2023-12-22T12:59:30;3.20;;;2.90;;
84668;SDS011;74897;42.704;23.318;2023-12-22T13:01:56;4.13;;;3.83;;
84668;SDS011;74897;42.704;23.318;2023-12-22T13:04:23;2.40;;;2.30;;
84668;SDS011;74897;42.704;23.318;2023-12-22T13:06:48;2.95;;;2.75;;
84668;SDS011;74897;42.704;23.318;2023-12-22T13:09:14;4.15;;;2.72;;
84668;SDS011;74897;42.704;23.318;2023-12-22T13:11:40;5.10;;;4.40;;
84668;SDS011;74897;42.704;23.318;2023-12-22T13:14:09;11.10;;;6.40;;
84668;SDS011;74897;42.704;23.318;2023-12-22T13:16:34;3.28;;;2.80;;
84668;SDS011;74897;42.704;23.318;2023-12-22T13:19:00;2.55;;;2.10;;
84668;SDS011;74897;42.704;23.318;2023-12-22T13:21:26;2.95;;;2.30;;
84668;SDS011;74897;42.704;23.318;2023-12-22T13:24:15;4.22;;;2.63;;
84668;SDS011;74897;42.704;23.318;2023-12-22T13:26:44;2.78;;;2.58;;
84668;SDS011;74897;42.704;23.318;2023-12-22T13:29:09;3.50;;;3.20;;
84668;SDS011;74897;42.704;23.318;2023-12-22T13:31:41;3.28;;;3.08;;
84668;SDS011;74897;42.704;23.318;2023-12-22T13:34:16;3.22;;;2.92;;
84668;SDS011;74897;42.704;23.318;2023-12-22T13:36:42;5.15;;;3.95;;
84668;SDS011;74897;42.704;23.318;2023-12-22T13:39:08;4.25;;;3.10;;
84668;SDS011;74897;42.704;23.318;2023-12-22T13:41:40;3.67;;;3.38;;
84668;SDS011;74897;42.704;23.318;2023-12-22T13:44:07;3.08;;;2.88;;
84668;SDS011;74897;42.704;23.318;2023-12-22T13:46:33;2.97;;;2.75;;
84668;SDS011;74897;42.704;23.318;2023-12-22T13:49:00;8.32;;;5.18;;
84668;SDS011;74897;42.704;23.318;2023-12-22T13:51:26;4.97;;;4.30;;
84668;SDS011;74897;42.704;23.318;2023-12-22T13:53:51;5.47;;;3.20;;
84668;SDS011;74897;42.704;23.318;2023-12-22T13:56:17;5.32;;;3.65;;
84668;SDS011;74897;42.704;23.318;2023-12-22T13:58:45;3.97;;;3.60;;
84668;SDS011;74897;42.704;23.318;2023-12-22T14:01:14;6.32;;;3.92;;
84668;SDS011;74897;42.704;23.318;2023-12-22T14:03:41;4.22;;;3.60;;
84668;SDS011;74897;42.704;23.318;2023-12-22T14:06:06;5.28;;;3.88;;
84668;SDS011;74897;42.704;23.318;2023-12-22T14:08:34;3.20;;;2.90;;
84668;SDS011;74897;42.704;23.318;2023-12-22T14:10:59;3.65;;;3.35;;
84668;SDS011;74897;42.704;23.318;2023-12-22T14:13:25;2.67;;;2.47;;
84668;SDS011;74897;42.704;23.318;2023-12-22T14:15:52;3.03;;;2.72;;
84668;SDS011;74897;42.704;23.318;2023-12-22T14:18:17;3.65;;;3.35;;
84668;SDS011;74897;42.704;23.318;2023-12-22T14:20:43;2.63;;;2.43;;
84668;SDS011;74897;42.704;23.318;2023-12-22T14:23:11;4.07;;;3.00;;
84668;SDS011;74897;42.704;23.318;2023-12-22T14:25:44;2.95;;;2.75;;
84668;SDS011;74897;42.704;23.318;2023-12-22T14:28:10;2.90;;;2.40;;
84668;SDS011;74897;42.704;23.318;2023-12-22T14:30:35;3.45;;;3.00;;
84668;SDS011;74897;42.704;23.318;2023-12-22T14:33:00;2.78;;;2.45;;
84668;SDS011;74897;42.704;23.318;2023-12-22T14:35:26;4.10;;;3.72;;
84668;SDS011;74897;42.704;23.318;2023-12-22T14:37:51;3.05;;;2.40;;